Time;durP1;ratioP1;P1;durP2;ratioP2;P2;SDS_P1;SDS_P2;PMS_P1;PMS_P2;Temp;Humidity;BMP_temperature;BMP_pressure;BME280_temperature;BME280_humidity;BME280_pressure;Samples;Min_cycle;Max_cycle;Signal;HPM_P1;HPM_P2
2022/01/08 00:01:11;;;;;;;18.65;12.15;;;;;;;4.06;78.09;99118.94;5091710;28;20052;-60
2022/01/08 00:03:40;;;;;;;18.50;13.27;;;;;;;4.06;77.92;99118.94;5091131;28;20079;-60
2022/01/08 00:06:08;;;;;;;18.25;12.15;;;;;;;4.06;77.67;99121.56;5091502;28;20060;-60
2022/01/08 00:08:35;;;;;;;16.13;11.93;;;;;;;4.06;77.71;99118.94;5090581;28;20067;-61
2022/01/08 00:11:01;;;;;;;16.80;12.38;;;;;;;4.07;78.13;99121.50;5091276;28;20093;-59
2022/01/08 00:13:28;;;;;;;21.83;12.32;;;;;;;4.07;77.97;99118.88;5091724;28;20067;-59
2022/01/08 00:15:55;;;;;;;20.92;12.85;;;;;;;4.09;77.66;99118.84;5091553;28;20048;-61
2022/01/08 00:18:21;;;;;;;15.50;11.32;;;;;;;4.08;77.87;99118.00;5091496;28;20047;-61
2022/01/08 00:20:48;;;;;;;16.08;11.93;;;;;;;4.07;77.52;99116.28;5089700;28;20059;-59
2022/01/08 00:23:14;;;;;;;17.45;11.27;;;;;;;4.07;77.56;99113.69;5091342;28;20101;-60
2022/01/08 00:25:41;;;;;;;15.25;11.00;;;;;;;4.06;77.68;99118.94;5091635;28;20457;-61
2022/01/08 00:28:08;;;;;;;21.55;13.02;;;;;;;4.06;77.56;99118.94;5091167;28;20044;-60
2022/01/08 00:30:34;;;;;;;17.10;12.35;;;;;;;4.04;77.80;99122.47;5090842;28;20044;-60
2022/01/08 00:33:01;;;;;;;18.10;12.57;;;;;;;4.05;77.55;99123.34;5089899;28;20052;-60
2022/01/08 00:35:28;;;;;;;20.80;14.35;;;;;;;4.02;77.54;99121.69;5091409;28;20056;-61
2022/01/08 00:37:55;;;;;;;20.05;14.43;;;;;;;4.03;77.43;99131.19;5089947;28;20056;-63
2022/01/08 00:40:23;;;;;;;22.77;13.93;;;;;;;4.02;77.54;99129.50;5091070;28;20105;-60
2022/01/08 00:42:50;;;;;;;19.35;13.02;;;;;;;4.00;77.58;99113.09;5089716;28;20121;-61
2022/01/08 00:45:16;;;;;;;18.63;14.35;;;;;;;4.00;77.71;99125.28;5091127;28;20048;-59
2022/01/08 00:47:43;;;;;;;20.55;14.40;;;;;;;3.99;77.40;99115.75;5090751;28;20048;-61
2022/01/08 00:50:12;;;;;;;24.08;14.30;;;;;;;3.98;77.74;99112.31;5090859;28;20044;-61
2022/01/08 00:52:40;;;;;;;24.10;15.48;;;;;;;3.97;77.76;99110.63;5091048;28;20075;-61
2022/01/08 00:55:08;;;;;;;20.63;15.27;;;;;;;3.97;77.67;99108.03;5089766;28;20059;-62
2022/01/08 00:57:35;;;;;;;21.73;15.07;;;;;;;3.97;77.76;99110.63;5090897;28;20052;-62
2022/01/08 01:00:08;;;;;;;22.75;15.82;;;;;;;3.96;77.27;99118.50;5089434;28;20048;-61
2022/01/08 01:02:36;;;;;;;;;;;;;;;3.96;76.27;99115.91;5089757;28;20052;-61
2022/01/08 01:05:07;;;;;;;19.05;14.45;;;;;;;3.97;77.00;99122.78;5090674;28;19923;-60
2022/01/08 01:07:34;;;;;;;21.33;15.27;;;;;;;3.96;77.64;99116.72;5089281;28;20052;-61
2022/01/08 01:10:01;;;;;;;22.90;15.77;;;;;;;3.94;77.56;99113.34;5090362;28;20094;-60
2022/01/08 01:12:28;;;;;;;23.52;16.60;;;;;;;3.93;77.45;99110.78;5089286;28;20526;-61
2022/01/08 01:15:08;;;;;;;23.73;14.52;;;;;;;3.91;77.06;99103.03;5090231;28;20048;-63
2022/01/08 01:17:35;;;;;;;23.98;15.48;;;;;;;3.90;77.11;99101.34;5089000;28;20051;-60
2022/01/08 01:20:03;;;;;;;22.02;15.05;;;;;;;3.87;76.84;99104.06;5089301;28;20052;-62
2022/01/08 01:22:40;;;;;;;21.77;15.23;;;;;;;3.86;76.69;99107.59;5089255;28;20047;-60
2022/01/08 01:25:09;;;;;;;24.42;15.05;;;;;;;3.85;76.59;99104.13;5090231;28;20044;-60
2022/01/08 01:30:27;;;;;;;22.08;14.23;;;;;;;3.81;76.41;99109.53;5090457;28;20493;-61
2022/01/08 01:49:18;;;;;;;21.80;13.27;;;;;;;3.57;76.53;99113.03;5089790;28;20056;-60
2022/01/08 01:51:44;;;;;;;23.52;14.80;;;;;;;3.54;76.87;99115.75;5090240;28;20492;-60
2022/01/08 01:54:11;;;;;;;24.95;14.32;;;;;;;3.50;77.08;99112.41;5090145;28;20066;-61
2022/01/08 01:56:38;;;;;;;19.45;13.63;;;;;;;3.49;76.87;99121.13;5090041;28;20044;-60
2022/01/08 01:59:05;;;;;;;20.83;14.25;;;;;;;3.48;76.78;99109.00;5089775;28;20082;-61
2022/01/08 02:01:32;;;;;;;24.35;15.40;;;;;;;3.46;77.11;99108.25;5089687;28;20101;-61
2022/01/08 02:03:58;;;;;;;21.10;14.93;;;;;;;3.45;77.26;99109.16;5088629;28;20097;-60
2022/01/08 02:06:25;;;;;;;22.85;15.07;;;;;;;3.43;76.91;99105.75;5090023;28;20060;-60
2022/01/08 02:08:51;;;;;;;18.50;14.15;;;;;;;3.43;76.93;99105.75;5089675;28;20055;-61
2022/01/08 02:11:20;;;;;;;24.92;15.68;;;;;;;3.42;76.81;99101.47;5089414;28;20059;-61
2022/01/08 02:13:50;;;;;;;20.55;14.65;;;;;;;3.41;76.56;99104.97;5088891;28;20511;-62
2022/01/08 02:16:17;;;;;;;21.05;14.52;;;;;;;3.38;76.55;99112.88;5090196;28;20044;-60
2022/01/08 02:18:45;;;;;;;21.95;13.93;;;;;;;3.37;77.11;99116.41;5090112;28;20064;-60
2022/01/08 02:21:14;;;;;;;23.27;14.45;;;;;;;3.36;77.29;99125.94;5088266;28;20090;-60
2022/01/08 02:23:42;;;;;;;24.27;15.20;;;;;;;3.36;77.25;99123.34;5089645;28;20044;-60
2022/01/08 02:26:11;;;;;;;27.45;17.15;;;;;;;3.36;77.51;99118.13;5089985;28;20062;-61
2022/01/08 02:28:39;;;;;;;26.05;17.20;;;;;;;3.38;77.69;99116.34;5093253;28;20113;-60
2022/01/08 02:31:07;;;;;;;24.48;17.65;;;;;;;3.39;77.47;99115.44;5092012;28;20075;-59
2022/01/08 02:33:36;;;;;;;30.48;19.02;;;;;;;3.42;77.63;99124.00;5092265;28;20124;-63
2022/01/08 02:36:07;;;;;;;33.45;18.35;;;;;;;3.42;77.21;99119.66;5092189;28;20495;-60
2022/01/08 02:38:34;;;;;;;26.20;17.98;;;;;;;3.43;77.36;99110.94;5092172;28;20056;-61
2022/01/08 02:41:03;;;;;;;26.17;18.67;;;;;;;3.43;77.47;99113.56;5091815;28;20048;-61
2022/01/08 02:43:33;;;;;;;25.13;17.77;;;;;;;3.45;77.33;99108.28;5091887;28;20056;-63
2022/01/08 02:46:01;;;;;;;28.10;18.88;;;;;;;3.45;77.44;99119.56;5093079;28;20062;-63
2022/01/08 02:48:27;;;;;;;30.27;19.25;;;;;;;3.43;77.37;99115.31;5091963;28;20055;-59
2022/01/08 02:50:54;;;;;;;27.75;18.15;;;;;;;3.44;76.84;99114.41;5093066;28;20052;-60
2022/01/08 02:53:21;;;;;;;27.50;17.92;;;;;;;3.43;76.95;99116.16;5093228;28;20048;-61
2022/01/08 02:55:51;;;;;;;27.92;17.60;;;;;;;3.42;76.81;99114.47;5093148;28;20147;-62
2022/01/08 02:58:18;;;;;;;26.65;16.77;;;;;;;3.39;76.98;99115.44;5091831;28;20393;-62
2022/01/08 03:00:44;;;;;;;22.52;16.90;;;;;;;3.38;77.00;99126.75;5092650;28;20043;-64
2022/01/08 03:03:12;;;;;;;26.15;16.85;;;;;;;3.38;77.47;99118.09;5092726;28;20048;-61
2022/01/08 03:05:39;;;;;;;27.70;18.13;;;;;;;3.38;77.49;99110.28;5091761;28;20040;-61
2022/01/08 03:08:06;;;;;;;23.17;16.95;;;;;;;3.38;77.62;99105.09;5093020;28;20048;-63
2022/01/08 03:10:33;;;;;;;27.13;17.63;;;;;;;3.38;77.64;99102.47;5092526;28;20044;-62
2022/01/08 03:12:59;;;;;;;24.77;17.35;;;;;;;3.38;77.27;99098.13;5092786;28;20455;-62
2022/01/08 03:15:27;;;;;;;29.50;18.10;;;;;;;3.37;77.43;99093.81;5092882;28;20052;-62
2022/01/08 03:17:54;;;;;;;26.45;17.88;;;;;;;3.37;77.58;99095.59;5092971;28;20063;-62
2022/01/08 03:20:21;;;;;;;28.02;17.00;;;;;;;3.36;77.48;99092.13;5092609;28;20040;-59
2022/01/08 03:22:47;;;;;;;23.58;16.77;;;;;;;3.37;77.55;99090.38;5091298;28;20390;-60
2022/01/08 03:25:15;;;;;;;27.10;17.23;;;;;;;3.37;77.41;99091.22;5092633;28;20052;-60
2022/01/08 03:27:42;;;;;;;22.15;15.55;;;;;;;3.37;77.36;99088.59;5074395;28;20044;-63
2022/01/08 03:30:11;;;;;;;27.13;16.02;;;;;;;3.37;77.43;99093.81;5090788;28;20135;-63
2022/01/08 03:32:39;;;;;;;21.20;15.38;;;;;;;3.38;77.38;99086.88;5091126;28;20063;-61
2022/01/08 03:35:08;;;;;;;25.00;17.02;;;;;;;3.38;77.35;99098.13;5092405;28;20051;-62
2022/01/08 03:37:35;;;;;;;23.63;16.48;;;;;;;3.39;77.50;99093.75;5092379;28;20385;-61
2022/01/08 03:40:03;;;;;;;26.08;16.27;;;;;;;3.40;77.26;99100.66;5091038;28;20086;-63
2022/01/08 03:42:29;;;;;;;25.98;16.10;;;;;;;3.41;77.38;99097.16;5092121;28;20060;-65
2022/01/08 03:44:56;;;;;;;24.73;15.65;;;;;;;3.41;77.38;99104.97;5091110;28;20044;-62
2022/01/08 03:47:42;;;;;;;24.77;15.25;;;;;;;3.41;77.51;99099.78;5092415;28;20102;-63
2022/01/08 03:50:08;;;;;;;25.10;15.68;;;;;;;3.43;77.41;99100.53;5092214;28;20516;-63
2022/01/08 03:52:35;;;;;;;24.55;16.20;;;;;;;3.44;77.42;99110.03;5091972;28;20481;-62
2022/01/08 03:55:02;;;;;;;26.05;17.10;;;;;;;3.42;76.93;99111.00;5092176;28;20529;-62
2022/01/08 03:57:29;;;;;;;27.83;16.92;;;;;;;3.43;77.26;99116.16;5092012;28;20540;-61
2022/01/08 03:59:55;;;;;;;25.90;16.85;;;;;;;3.41;76.91;99111.91;5091871;28;20595;-64
2022/01/08 04:02:22;;;;;;;23.63;16.92;;;;;;;3.40;76.96;99118.88;5090538;28;20044;-62
2022/01/08 04:04:49;;;;;;;25.70;17.70;;;;;;;3.39;77.04;99119.78;5091714;28;20052;-61
2022/01/08 04:07:15;;;;;;;30.38;17.33;;;;;;;3.38;76.55;99115.47;5091573;28;20101;-61
2022/01/08 04:09:42;;;;;;;28.02;17.58;;;;;;;3.35;76.39;99113.84;5091248;28;20052;-64
2022/01/08 04:12:09;;;;;;;26.48;18.05;;;;;;;3.33;76.49;99117.41;5091240;28;20553;-62
2022/01/08 04:14:50;;;;;;;31.27;18.67;;;;;;;3.31;76.75;99119.22;5091320;28;20044;-63
2022/01/08 04:17:17;;;;;;;32.10;19.92;;;;;;;3.28;76.50;99114.16;5091437;28;20084;-64
2022/01/08 04:19:44;;;;;;;32.20;20.05;;;;;;;3.25;76.63;99117.69;5091243;28;20044;-61
2022/01/08 04:22:13;;;;;;;27.83;18.77;;;;;;;3.22;76.56;99123.84;5091281;28;20056;-63
2022/01/08 04:24:41;;;;;;;34.35;19.38;;;;;;;3.20;76.66;99127.41;5090197;28;20490;-62
2022/01/08 04:27:09;;;;;;;34.90;19.38;;;;;;;3.17;77.02;99132.75;5090346;28;20048;-62
2022/01/08 04:29:35;;;;;;;31.17;19.70;;;;;;;3.16;77.18;99131.88;5091240;28;20070;-64
2022/01/08 04:32:02;;;;;;;35.67;21.75;;;;;;;3.16;76.85;99141.44;5091321;28;21086;-61
2022/01/08 04:34:29;;;;;;;48.45;21.63;;;;;;;3.14;77.29;99149.28;5091160;28;20200;-64
2022/01/08 04:36:56;;;;;;;37.25;22.30;;;;;;;3.13;77.49;99152.78;5091091;28;20048;-63
2022/01/08 04:39:22;;;;;;;33.95;21.85;;;;;;;3.10;77.32;99150.34;5090655;28;20040;-62
2022/01/08 04:41:49;;;;;;;30.75;20.63;;;;;;;3.10;77.12;99158.13;5091071;28;20408;-62
2022/01/08 04:44:16;;;;;;;31.23;20.77;;;;;;;3.09;77.35;99148.59;5091205;28;20056;-62
2022/01/08 04:46:42;;;;;;;35.38;21.70;;;;;;;3.07;76.82;99163.44;5091028;28;20115;-61
2022/01/08 04:49:10;;;;;;;31.85;20.23;;;;;;;3.05;77.04;99168.69;5090581;28;20043;-63
2022/01/08 04:51:37;;;;;;;29.88;19.27;;;;;;;3.03;76.99;99167.88;5090689;28;20051;-63
2022/01/08 04:54:04;;;;;;;30.85;20.38;;;;;;;3.01;77.35;99167.09;5089720;28;20105;-62
2022/01/08 04:56:30;;;;;;;30.42;19.58;;;;;;;3.03;77.26;99170.47;5090775;28;20064;-63
2022/01/08 04:58:57;;;;;;;31.48;19.17;;;;;;;3.00;77.33;99166.22;5090337;28;20052;-65
2022/01/08 05:01:24;;;;;;;28.13;19.73;;;;;;;3.02;77.03;99173.16;5090336;28;20056;-62
2022/01/08 05:03:51;;;;;;;30.33;20.27;;;;;;;3.01;77.45;99169.69;5090318;28;20040;-64
2022/01/08 05:06:18;;;;;;;31.08;18.98;;;;;;;3.02;77.14;99165.34;5090481;28;20488;-63
2022/01/08 05:08:44;;;;;;;29.80;19.25;;;;;;;3.01;77.52;99167.09;5090599;28;20040;-61
2022/01/08 05:11:11;;;;;;;28.05;18.33;;;;;;;3.02;77.45;99157.56;5090305;28;20102;-62
2022/01/08 05:13:38;;;;;;;36.25;19.13;;;;;;;3.02;77.57;99168.78;5090623;28;20044;-63
2022/01/08 05:16:06;;;;;;;31.58;19.67;;;;;;;3.02;77.26;99173.97;5089248;28;20044;-62
2022/01/08 05:18:33;;;;;;;29.92;18.42;;;;;;;3.00;77.30;99168.84;5089074;28;20070;-62
2022/01/08 05:23:45;;;;;;;23.60;15.27;;;;;;;3.00;77.01;99173.22;5090464;28;20048;-64
2022/01/08 05:26:12;;;;;;;29.88;16.80;;;;;;;3.00;77.63;99170.59;5090336;28;20106;-64
2022/01/08 05:28:38;;;;;;;25.88;16.77;;;;;;;3.02;77.45;99180.94;5090596;28;20044;-62
2022/01/08 05:31:05;;;;;;;27.33;17.00;;;;;;;2.99;77.15;99180.16;5089971;28;20097;-62
2022/01/08 05:33:31;;;;;;;28.42;17.67;;;;;;;3.00;77.13;99179.22;5090990;28;20641;-61
2022/01/08 05:35:58;;;;;;;35.13;18.27;;;;;;;3.00;77.79;99179.22;5089171;28;20095;-62
2022/01/08 05:38:24;;;;;;;30.80;17.52;;;;;;;3.03;77.65;99182.66;5090390;28;20056;-62
2022/01/08 05:40:51;;;;;;;25.90;17.40;;;;;;;3.02;77.22;99173.97;5090098;28;20051;-61
2022/01/08 05:43:18;;;;;;;27.42;17.48;;;;;;;3.05;77.94;99179.09;5090076;28;20048;-63
2022/01/08 05:45:45;;;;;;;29.38;16.33;;;;;;;3.04;77.42;99187.78;5090193;28;20052;-61
2022/01/08 05:48:12;;;;;;;29.30;18.35;;;;;;;3.07;77.58;99179.03;5090248;28;20090;-61
2022/01/08 05:50:40;;;;;;;28.02;19.17;;;;;;;3.08;77.49;99188.53;5090131;28;20043;-61
2022/01/08 05:53:07;;;;;;;24.45;16.83;;;;;;;3.09;77.37;99185.00;5089167;28;20048;-62
2022/01/08 05:55:33;;;;;;;32.25;18.08;;;;;;;3.09;77.60;99182.41;5090591;28;20056;-60
2022/01/08 05:58:00;;;;;;;26.10;17.60;;;;;;;3.11;77.94;99178.03;5089896;28;20063;-62
2022/01/08 06:00:27;;;;;;;27.90;17.15;;;;;;;3.13;78.06;99184.00;5089693;28;20087;-62
2022/01/08 06:02:53;;;;;;;26.77;16.95;;;;;;;3.14;77.90;99185.69;5092521;28;20446;-61
2022/01/08 06:05:20;;;;;;;30.75;16.90;;;;;;;3.17;77.63;99176.97;5094073;28;20052;-63
2022/01/08 06:07:47;;;;;;;27.27;17.83;;;;;;;3.17;77.47;99183.00;5094087;28;20048;-61
2022/01/08 06:10:14;;;;;;;25.27;18.27;;;;;;;3.18;77.04;99189.88;5093884;28;20438;-62
2022/01/08 06:12:40;;;;;;;25.25;16.77;;;;;;;3.16;77.14;99186.50;5094046;28;20056;-61
2022/01/08 06:15:07;;;;;;;28.58;17.92;;;;;;;3.15;76.62;99184.81;5093940;28;20052;-62
2022/01/08 06:17:34;;;;;;;32.67;17.58;;;;;;;3.14;76.68;99188.28;5093717;28;20054;-61
2022/01/08 06:20:01;;;;;;;26.52;17.40;;;;;;;3.11;76.85;99193.63;5093502;28;20063;-63
2022/01/08 06:22:27;;;;;;;30.10;17.10;;;;;;;3.11;76.81;99197.06;5093742;28;20419;-61
2022/01/08 06:24:54;;;;;;;29.05;17.33;;;;;;;3.09;77.08;99195.41;5093562;28;20554;-61
2022/01/08 06:27:20;;;;;;;30.67;17.02;;;;;;;3.09;76.63;99203.22;5093636;28;20093;-61
2022/01/08 06:29:47;;;;;;;27.08;16.83;;;;;;;3.09;77.05;99205.81;5093641;28;20168;-63
2022/01/08 06:32:14;;;;;;;34.08;15.98;;;;;;;3.07;77.11;99205.03;5093337;28;20051;-62
2022/01/08 06:34:41;;;;;;;26.70;16.60;;;;;;;3.05;76.86;99206.81;5092171;28;20093;-61
2022/01/08 06:37:09;;;;;;;26.45;16.20;;;;;;;3.05;76.87;99214.63;5092248;28;20488;-61
2022/01/08 06:39:37;;;;;;;30.25;17.48;;;;;;;3.04;76.77;99210.34;5093337;28;20048;-62
2022/01/08 06:42:04;;;;;;;33.08;19.33;;;;;;;3.03;76.49;99213.84;5093350;28;20056;-63
2022/01/08 06:44:31;;;;;;;25.67;16.60;;;;;;;3.00;76.68;99205.22;5093441;28;20040;-60
2022/01/08 06:46:58;;;;;;;27.90;17.92;;;;;;;3.00;76.86;99213.03;5093469;28;20044;-62
2022/01/08 06:49:24;;;;;;;29.30;17.55;;;;;;;2.98;76.63;99220.06;5093066;28;20044;-61
2022/01/08 06:51:51;;;;;;;26.77;17.23;;;;;;;2.96;76.98;99211.44;5093289;28;20115;-61
2022/01/08 06:54:18;;;;;;;25.65;17.33;;;;;;;2.96;77.08;99221.00;5093341;28;20117;-61
2022/01/08 06:56:44;;;;;;;26.92;17.77;;;;;;;2.95;76.49;99214.13;5093314;28;20044;-62
2022/01/08 06:59:11;;;;;;;25.42;17.45;;;;;;;2.94;76.88;99208.06;5092877;28;20040;-61
2022/01/08 07:01:37;;;;;;;29.85;16.83;;;;;;;2.92;76.52;99214.22;5091532;28;20464;-64
2022/01/08 07:04:04;;;;;;;29.63;17.80;;;;;;;2.91;77.00;99212.53;5092387;28;20048;-62
2022/01/08 07:06:31;;;;;;;27.13;18.10;;;;;;;2.90;76.67;99210.81;5092786;28;20047;-61
2022/01/08 07:08:57;;;;;;;28.40;17.75;;;;;;;2.87;76.83;99209.16;5092638;28;20040;-60
2022/01/08 07:11:24;;;;;;;28.20;17.27;;;;;;;2.87;76.73;99216.97;5092300;28;20048;-62
2022/01/08 07:13:50;;;;;;;26.45;15.85;;;;;;;2.86;76.55;99218.72;5091006;28;20553;-61
2022/01/08 07:16:17;;;;;;;25.00;16.52;;;;;;;2.86;77.16;99215.28;5092857;28;20052;-60
2022/01/08 07:18:44;;;;;;;29.38;17.58;;;;;;;2.86;76.68;99225.66;5092489;28;20044;-61
2022/01/08 07:21:10;;;;;;;33.75;16.90;;;;;;;2.88;76.78;99231.69;5092286;28;20105;-62
2022/01/08 07:23:37;;;;;;;25.67;16.45;;;;;;;2.88;77.07;99238.63;5092615;28;20180;-60
2022/01/08 07:26:03;;;;;;;28.42;17.15;;;;;;;2.87;77.02;99227.34;5092788;28;20044;-61
2022/01/08 07:28:30;;;;;;;26.00;15.68;;;;;;;2.88;76.80;99233.41;5092722;28;20043;-61
2022/01/08 07:30:56;;;;;;;36.50;17.70;;;;;;;2.86;77.14;99231.72;5092127;28;20466;-61
2022/01/08 07:33:23;;;;;;;29.25;17.98;;;;;;;2.86;76.44;99228.25;5092509;28;20056;-61
2022/01/08 07:35:50;;;;;;;26.98;15.65;;;;;;;2.84;77.18;99227.47;5092346;28;20052;-60
2022/01/08 07:38:16;;;;;;;27.60;16.80;;;;;;;2.86;76.90;99223.94;5092372;28;20516;-62
2022/01/08 07:40:43;;;;;;;28.25;16.17;;;;;;;2.84;77.43;99225.72;5091324;28;20048;-62
2022/01/08 07:43:09;;;;;;;26.70;15.48;;;;;;;2.85;76.96;99226.56;5091161;28;20553;-61
2022/01/08 07:45:36;;;;;;;29.02;15.95;;;;;;;2.85;76.76;99229.19;5092140;28;20040;-63
2022/01/08 07:48:03;;;;;;;25.08;16.00;;;;;;;2.84;76.99;99235.28;5092085;28;20048;-63
2022/01/08 07:50:29;;;;;;;26.90;16.30;;;;;;;2.85;76.98;99222.22;5091318;28;20048;-61
2022/01/08 07:52:56;;;;;;;27.05;16.45;;;;;;;2.87;77.38;99237.75;5090846;28;20056;-60
2022/01/08 07:55:22;;;;;;;27.02;16.95;;;;;;;2.88;77.24;99238.63;5091351;28;20051;-63
2022/01/08 07:57:49;;;;;;;27.40;17.63;;;;;;;2.88;76.90;99246.41;5091737;28;20048;-62
2022/01/08 08:00:16;;;;;;;29.10;17.38;;;;;;;2.89;77.23;99238.56;5089948;28;20052;-62
2022/01/08 08:02:43;;;;;;;30.80;18.05;;;;;;;2.89;76.50;99240.31;5091792;28;20048;-63
2022/01/08 08:05:10;;;;;;;27.77;16.95;;;;;;;2.88;76.89;99244.69;5089693;28;20070;-61
2022/01/08 08:07:38;;;;;;;33.30;17.30;;;;;;;2.87;76.86;99242.97;5091615;28;20059;-61
2022/01/08 08:10:12;;;;;;;29.23;18.48;;;;;;;2.83;76.09;99242.22;5090495;28;20585;-63
2022/01/08 08:12:40;;;;;;;26.23;17.58;;;;;;;2.82;76.07;99244.88;5090710;28;20051;-61
2022/01/08 08:15:07;;;;;;;31.33;18.55;;;;;;;2.80;76.59;99251.88;5091608;28;20484;-60
2022/01/08 08:17:35;;;;;;;26.85;16.83;;;;;;;2.76;76.75;99245.91;5090302;28;20052;-61
2022/01/08 08:20:03;;;;;;;28.20;17.42;;;;;;;2.74;76.68;99237.34;5089929;28;20052;-62
2022/01/08 08:22:30;;;;;;;33.53;18.67;;;;;;;2.71;76.74;99243.47;5090470;28;20504;-61
2022/01/08 08:24:57;;;;;;;31.70;18.63;;;;;;;2.70;76.96;99241.75;5091121;28;20109;-60
2022/01/08 08:27:23;;;;;;;28.58;18.50;;;;;;;2.68;76.72;99240.13;5091282;28;20500;-63
2022/01/08 08:29:50;;;;;;;28.33;18.30;;;;;;;2.67;76.61;99239.28;5091463;28;20055;-61
2022/01/08 08:32:17;;;;;;;29.88;18.58;;;;;;;2.64;76.75;99239.38;5091047;28;20044;-60
2022/01/08 08:34:43;;;;;;;34.50;17.77;;;;;;;2.63;76.96;99240.28;5091406;28;20047;-62
2022/01/08 08:37:10;;;;;;;30.73;17.38;;;;;;;2.63;77.01;99240.28;5091493;28;20109;-63
2022/01/08 08:39:37;;;;;;;27.55;18.25;;;;;;;2.62;76.61;99243.78;5090536;28;20446;-62
2022/01/08 08:42:03;;;;;;;27.48;16.65;;;;;;;2.61;76.62;99242.06;5091158;28;20093;-61
2022/01/08 08:44:31;;;;;;;34.42;19.13;;;;;;;2.61;76.81;99239.47;5090932;28;20470;-63
2022/01/08 08:46:57;;;;;;;30.75;18.10;;;;;;;2.62;77.23;99235.13;5089817;28;20489;-61
2022/01/08 08:49:24;;;;;;;29.42;18.67;;;;;;;2.60;77.07;99235.19;5090629;28;20048;-64
2022/01/08 08:51:50;;;;;;;32.75;19.02;;;;;;;2.59;77.24;99228.28;5090325;28;20549;-61
2022/01/08 08:54:17;;;;;;;33.00;18.38;;;;;;;2.59;77.51;99223.09;5090703;28;20048;-62
2022/01/08 08:56:44;;;;;;;32.13;19.98;;;;;;;2.59;77.14;99217.91;5089546;28;20489;-61
2022/01/08 08:59:10;;;;;;;32.50;19.88;;;;;;;2.59;77.00;99218.72;5090903;28;20150;-64
2022/01/08 09:01:37;;;;;;;33.08;20.48;;;;;;;2.58;77.25;99218.81;5090508;28;20051;-61
2022/01/08 09:04:05;;;;;;;31.38;20.63;;;;;;;2.57;77.08;99220.53;5090728;28;20048;-61
2022/01/08 09:06:33;;;;;;;30.65;20.17;;;;;;;2.57;77.14;99222.28;5090610;28;20044;-61
2022/01/08 09:09:00;;;;;;;34.05;20.67;;;;;;;2.56;77.24;99218.00;5089464;28;20051;-61
2022/01/08 09:11:28;;;;;;;33.92;20.15;;;;;;;2.54;76.82;99212.84;5090329;28;20071;-63
2022/01/08 09:13:54;;;;;;;40.90;21.52;;;;;;;2.53;77.45;99210.28;5089032;28;20730;-61
2022/01/08 09:16:21;;;;;;;35.92;20.58;;;;;;;2.52;77.35;99212.06;5090256;28;20109;-62
2022/01/08 09:18:48;;;;;;;33.42;21.13;;;;;;;2.52;77.53;99206.84;5090440;28;20484;-61
2022/01/08 09:21:15;;;;;;;37.00;22.70;;;;;;;2.52;77.76;99206.00;5090211;28;20093;-61
2022/01/08 09:23:42;;;;;;;39.95;22.83;;;;;;;2.51;77.58;99209.50;5088945;28;20059;-61
2022/01/08 09:26:08;;;;;;;36.83;23.20;;;;;;;2.52;77.83;99216.38;5090294;28;20105;-61
2022/01/08 09:28:36;;;;;;;34.88;22.52;;;;;;;2.52;77.97;99213.78;5090108;28;20043;-61
2022/01/08 09:31:03;;;;;;;41.30;24.50;;;;;;;2.54;77.75;99222.41;5089997;28;20060;-62
2022/01/08 09:33:31;;;;;;;38.60;22.00;;;;;;;2.56;78.13;99231.84;5090305;28;20048;-62
2022/01/08 09:35:58;;;;;;;37.20;23.95;;;;;;;2.58;78.35;99227.44;5088510;28;20102;-65
2022/01/08 09:38:26;;;;;;;45.13;24.70;;;;;;;2.62;78.05;99228.19;5089570;28;20048;-64
2022/01/08 09:40:52;;;;;;;52.33;26.30;;;;;;;2.64;77.89;99225.53;5088893;28;20040;-62
2022/01/08 09:43:19;;;;;;;42.38;24.98;;;;;;;2.66;78.23;99219.41;5090275;28;20052;-61
2022/01/08 09:45:46;;;;;;;39.65;23.92;;;;;;;2.69;77.88;99218.44;5090467;28;20101;-61
2022/01/08 09:48:13;;;;;;;39.50;24.83;;;;;;;2.69;78.03;99221.88;5090363;28;20052;-62
2022/01/08 09:50:42;;;;;;;47.35;26.58;;;;;;;2.70;78.03;99218.38;5089873;28;20496;-61
2022/01/08 09:53:08;;;;;;;41.30;24.67;;;;;;;2.74;78.19;99206.97;5088900;28;20044;-62
2022/01/08 09:55:35;;;;;;;48.33;26.67;;;;;;;2.74;77.76;99201.78;5090083;28;20117;-61
2022/01/08 09:58:03;;;;;;;47.33;25.48;;;;;;;2.78;78.60;99205.13;5089976;28;20052;-61
2022/01/08 10:00:32;;;;;;;40.10;24.70;;;;;;;2.79;78.16;99206.84;5088350;28;20060;-62
2022/01/08 10:03:26;;;;;;;45.20;26.48;;;;;;;2.79;77.44;99193.84;5088615;28;20048;-63
2022/01/08 10:05:55;;;;;;;46.67;27.77;;;;;;;2.85;78.25;99195.38;5089769;28;20669;-61
2022/01/08 10:08:41;;;;;;;36.10;24.38;;;;;;;2.87;78.46;99190.97;5089040;28;20133;-60
2022/01/08 10:11:08;;;;;;;37.97;23.60;;;;;;;2.89;78.23;99196.13;5088329;28;20044;-61
2022/01/08 10:13:40;;;;;;;40.33;23.88;;;;;;;2.88;78.34;99197.88;5090042;28;20063;-63
2022/01/08 10:19:03;;;;;;;37.63;24.30;;;;;;;2.92;78.16;99183.84;5089691;28;20048;-61
2022/01/08 10:21:34;;;;;;;39.42;25.20;;;;;;;2.90;77.73;99180.47;5088222;28;20512;-64
2022/01/08 10:24:05;;;;;;;42.63;26.02;;;;;;;2.89;77.13;99183.97;5089536;28;20105;-62
2022/01/08 10:26:36;;;;;;;53.63;26.13;;;;;;;2.89;77.65;99163.19;5088804;28;20105;-61
2022/01/08 10:29:09;;;;;;;50.45;26.25;;;;;;;2.89;78.11;99165.78;5088658;28;20059;-62
2022/01/08 10:31:50;;;;;;;46.05;25.70;;;;;;;2.86;77.07;99158.94;5089834;28;20055;-63
2022/01/08 10:34:20;;;;;;;43.00;26.10;;;;;;;2.88;77.24;99158.91;5088716;28;20087;-61
2022/01/08 10:36:48;;;;;;;55.13;28.00;;;;;;;2.86;77.41;99158.06;5089638;28;20090;-63
2022/01/08 10:39:20;;;;;;;42.83;26.67;;;;;;;2.85;77.52;99154.63;5089328;28;20597;-61
2022/01/08 10:41:49;;;;;;;41.85;26.73;;;;;;;2.86;77.73;99147.69;5088304;28;20056;-63
2022/01/08 10:44:20;;;;;;;49.28;26.83;;;;;;;2.86;77.94;99134.69;5088549;28;20051;-61
2022/01/08 10:47:07;;;;;;;53.70;28.35;;;;;;;2.84;76.93;99126.09;5089705;28;20052;-62
2022/01/08 10:49:38;;;;;;;41.03;26.25;;;;;;;2.90;78.63;99136.28;5092831;28;20530;-61
2022/01/08 10:52:18;;;;;;;52.55;27.67;;;;;;;2.90;77.73;99122.41;5092968;28;20500;-62
2022/01/08 10:54:48;;;;;;;50.33;26.30;;;;;;;2.90;78.14;99118.06;5093116;28;20573;-61
2022/01/08 10:57:14;;;;;;;46.80;26.05;;;;;;;2.91;78.38;99117.16;5091914;28;20052;-62
2022/01/08 10:59:42;;;;;;;75.90;27.55;;;;;;;2.92;78.44;99102.44;5091418;28;20048;-62
2022/01/08 11:02:12;;;;;;;76.85;27.90;;;;;;;2.89;77.55;99103.38;5092886;28;20063;-62
2022/01/08 11:04:51;;;;;;;64.07;24.30;;;;;;;2.91;77.95;99098.97;5093040;28;20048;-60
2022/01/08 11:07:26;;;;;;;66.40;25.88;;;;;;;2.89;77.80;99095.59;5092897;28;20113;-62
2022/01/08 11:09:55;;;;;;;67.93;24.00;;;;;;;2.94;78.34;99093.66;5091351;28;20672;-64
2022/01/08 11:12:31;;;;;;;76.72;25.52;;;;;;;2.93;77.95;99086.78;5091792;28;20047;-62
2022/01/08 11:17:45;;;;;;;;;;;;;;;2.98;77.02;99084.84;5091752;28;20112;-60
2022/01/08 11:20:24;;;;;;;63.50;24.30;;;;;;;2.99;77.52;99077.91;5092351;28;19920;-61
2022/01/08 11:22:53;;;;;;;67.50;23.70;;;;;;;3.02;78.06;99071.75;5091287;28;20102;-60
2022/01/08 11:25:26;;;;;;;46.97;23.85;;;;;;;3.00;78.40;99090.00;5092330;28;20109;-61
2022/01/08 11:28:13;;;;;;;67.07;26.25;;;;;;;2.98;77.82;99069.25;5092600;28;20120;-62
2022/01/08 11:30:43;;;;;;;50.20;23.48;;;;;;;3.01;78.32;99060.50;5091170;28;20060;-62
2022/01/08 11:33:19;;;;;;;52.58;25.42;;;;;;;3.02;78.12;99054.38;5091397;28;20040;-62
2022/01/08 11:35:47;;;;;;;58.40;25.05;;;;;;;3.02;78.26;99049.19;5090953;28;20086;-62
2022/01/08 11:38:18;;;;;;;58.70;27.33;;;;;;;3.03;78.21;99044.84;5092521;28;20408;-63
2022/01/08 11:40:47;;;;;;;50.63;27.25;;;;;;;3.03;78.60;99035.25;5090724;28;20082;-61
2022/01/08 11:43:16;;;;;;;56.78;28.88;;;;;;;3.06;78.39;99036.94;5091118;28;20044;-64
2022/01/08 11:45:47;;;;;;;52.50;27.63;;;;;;;3.08;78.29;99035.97;5092036;28;20044;-63
2022/01/08 11:48:16;;;;;;;68.60;34.03;;;;;;;3.09;78.73;99032.44;5090919;28;20061;-61
2022/01/08 11:50:56;;;;;;;68.07;32.50;;;;;;;3.07;77.80;99030.81;5090596;28;20052;-61
2022/01/08 11:53:30;;;;;;;62.05;32.67;;;;;;;3.11;78.04;99029.78;5092062;28;20048;-62
2022/01/08 11:56:05;;;;;;;64.97;33.58;;;;;;;3.11;78.26;99028.03;5090652;28;20549;-61
2022/01/08 11:58:35;;;;;;;62.50;33.38;;;;;;;3.15;78.76;99010.56;5092197;28;20048;-61